Time;durP1;ratioP1;P1;durP2;ratioP2;P2;SDS_P1;SDS_P2;PMS_P1;PMS_P2;Temp;Humidity;BMP_temperature;BMP_pressure;BME280_temperature;BME280_humidity;BME280_pressure;Samples;Min_cycle;Max_cycle;Signal;HPM_P1;HPM_P2
2024/02/19 00:01:10;;;;;;;18.77;14.47;;;;;;;;;;5002148;28;20654;-86
2024/02/19 00:03:38;;;;;;;18.30;15.00;;;;;;;;;;5004425;28;20296;-86
2024/02/19 00:06:09;;;;;;;18.40;14.27;;;;;;;;;;5000220;28;20298;-86
2024/02/19 00:08:37;;;;;;;17.67;14.00;;;;;;;;;;4987201;28;20224;-82
2024/02/19 00:11:06;;;;;;;19.37;14.73;;;;;;;;;;5001504;28;20274;-85
2024/02/19 00:13:36;;;;;;;16.73;13.53;;;;;;;;;;5017756;28;20221;-86
2024/02/19 00:16:02;;;;;;;16.13;13.20;;;;;;;;;;5018957;28;20220;-86
2024/02/19 00:18:27;;;;;;;16.40;12.80;;;;;;;;;;4968618;28;20244;-85
2024/02/19 00:20:55;;;;;;;16.37;12.97;;;;;;;;;;4986593;28;20217;-86
2024/02/19 00:23:20;;;;;;;15.60;12.50;;;;;;;;;;4986770;28;20212;-85
2024/02/19 00:25:48;;;;;;;15.73;12.67;;;;;;;;;;4986318;28;20679;-86
2024/02/19 00:28:14;;;;;;;15.70;12.00;;;;;;;;;;5001285;28;20270;-85
2024/02/19 00:30:44;;;;;;;16.30;12.70;;;;;;;;;;5001927;28;20225;-84
2024/02/19 00:33:12;;;;;;;15.23;11.63;;;;;;;;;;4998667;28;20217;-86
2024/02/19 00:35:38;;;;;;;14.20;11.47;;;;;;;;;;4986522;28;20658;-84
2024/02/19 00:38:03;;;;;;;14.73;11.47;;;;;;;;;;5003945;28;20680;-84
2024/02/19 00:40:29;;;;;;;14.67;11.40;;;;;;;;;;5003491;28;20216;-87
2024/02/19 00:42:56;;;;;;;16.90;11.23;;;;;;;;;;5017918;28;20228;-85
2024/02/19 00:45:24;;;;;;;14.10;10.57;;;;;;;;;;4998279;28;20236;-85
2024/02/19 00:47:52;;;;;;;14.40;10.37;;;;;;;;;;5002811;28;20225;-86
2024/02/19 00:50:20;;;;;;;12.30;10.47;;;;;;;;;;4985743;28;20229;-86
2024/02/19 00:52:47;;;;;;;13.53;10.03;;;;;;;;;;4999893;28;20264;-87
2024/02/19 00:55:13;;;;;;;10.37;9.20;;;;;;;;;;4980834;28;20221;-86
2024/02/19 00:57:41;;;;;;;10.10;8.77;;;;;;;;;;5017803;28;20229;-84
2024/02/19 01:00:07;;;;;;;10.00;8.80;;;;;;;;;;4985021;28;20225;-86
2024/02/19 01:02:35;;;;;;;9.73;8.40;;;;;;;;;;5000298;28;20228;-85
2024/02/19 01:05:04;;;;;;;8.80;7.90;;;;;;;;;;4985326;28;20858;-84
2024/02/19 01:07:33;;;;;;;8.60;7.67;;;;;;;;;;4984473;28;20224;-85
2024/02/19 01:09:58;;;;;;;8.00;7.20;;;;;;;;;;4995174;28;20249;-82
2024/02/19 01:12:28;;;;;;;7.33;6.60;;;;;;;;;;5020544;28;20225;-83
2024/02/19 01:14:53;;;;;;;8.20;6.97;;;;;;;;;;5002973;28;20216;-83
2024/02/19 01:17:21;;;;;;;7.33;6.63;;;;;;;;;;4983818;28;20217;-83
2024/02/19 01:19:46;;;;;;;7.83;7.10;;;;;;;;;;4981546;28;20231;-82
2024/02/19 01:22:12;;;;;;;6.90;6.20;;;;;;;;;;4995636;28;20607;-84
2024/02/19 01:24:38;;;;;;;6.03;5.17;;;;;;;;;;4965021;28;20734;-82
2024/02/19 01:27:03;;;;;;;6.57;5.97;;;;;;;;;;4996436;28;20225;-85
2024/02/19 01:29:29;;;;;;;5.07;4.50;;;;;;;;;;4979728;28;20220;-82
2024/02/19 01:31:57;;;;;;;4.90;4.43;;;;;;;;;;4985610;28;20221;-81
2024/02/19 01:34:22;;;;;;;4.70;4.23;;;;;;;;;;4994504;28;20418;-82
2024/02/19 01:36:50;;;;;;;2.70;2.50;;;;;;;;;;5011865;28;20674;-82
2024/02/19 01:39:18;;;;;;;2.43;1.90;;;;;;;;;;4976827;28;20224;-83
2024/02/19 01:41:44;;;;;;;1.63;1.53;;;;;;;;;;4995365;28;20728;-83
2024/02/19 01:44:09;;;;;;;1.50;1.40;;;;;;;;;;4978626;28;20240;-82
2024/02/19 01:46:38;;;;;;;2.20;1.40;;;;;;;;;;4979349;28;20235;-82
2024/02/19 01:49:05;;;;;;;1.03;0.90;;;;;;;;;;4978813;28;20290;-81
2024/02/19 01:51:31;;;;;;;0.70;0.70;;;;;;;;;;5009473;28;20316;-80
2024/02/19 01:53:56;;;;;;;0.90;0.90;;;;;;;;;;4976364;28;20284;-80
2024/02/19 01:56:22;;;;;;;1.10;1.00;;;;;;;;;;4978337;28;22825;-84
2024/02/19 01:58:50;;;;;;;1.40;1.30;;;;;;;;;;4993862;28;20228;-81
2024/02/19 02:01:19;;;;;;;2.30;2.10;;;;;;;;;;5009731;28;20312;-84
2024/02/19 02:03:47;;;;;;;3.30;2.30;;;;;;;;;;5010351;28;20221;-84
2024/02/19 02:06:16;;;;;;;5.30;3.10;;;;;;;;;;4994204;28;20587;-81
2024/02/19 02:08:44;;;;;;;4.43;2.93;;;;;;;;;;5026065;28;20796;-80
2024/02/19 02:11:09;;;;;;;5.57;3.57;;;;;;;;;;4993859;28;20232;-81
2024/02/19 02:13:35;;;;;;;6.03;3.70;;;;;;;;;;4994512;28;20228;-83
2024/02/19 02:16:05;;;;;;;4.30;3.63;;;;;;;;;;4992790;28;20705;-82
2024/02/19 02:18:33;;;;;;;5.70;3.53;;;;;;;;;;4993140;28;20232;-83
2024/02/19 02:21:00;;;;;;;5.30;3.77;;;;;;;;;;4976718;28;20772;-84
2024/02/19 02:23:26;;;;;;;4.47;3.53;;;;;;;;;;4978014;28;20228;-81
2024/02/19 02:25:53;;;;;;;4.33;3.17;;;;;;;;;;5008306;28;20232;-80
2024/02/19 02:28:21;;;;;;;5.27;4.70;;;;;;;;;;4992209;28;20223;-81
2024/02/19 02:30:48;;;;;;;6.27;3.90;;;;;;;;;;4994927;28;20985;-80
2024/02/19 02:33:14;;;;;;;5.00;3.60;;;;;;;;;;4991533;28;20233;-80
2024/02/19 02:35:40;;;;;;;5.67;3.53;;;;;;;;;;5008741;28;20223;-80
2024/02/19 02:38:08;;;;;;;4.60;3.27;;;;;;;;;;4974848;28;20654;-81
2024/02/19 02:40:35;;;;;;;5.97;3.07;;;;;;;;;;4995165;28;20355;-82
2024/02/19 02:43:02;;;;;;;3.10;2.80;;;;;;;;;;4981633;28;20231;-82
2024/02/19 02:45:28;;;;;;;4.37;2.83;;;;;;;;;;4981749;28;21108;-81
2024/02/19 02:47:56;;;;;;;4.20;2.47;;;;;;;;;;4989217;28;20223;-84
2024/02/19 02:50:21;;;;;;;4.73;2.43;;;;;;;;;;4985257;28;20221;-83
2024/02/19 02:52:49;;;;;;;3.73;2.10;;;;;;;;;;4999889;28;20251;-83
2024/02/19 02:55:14;;;;;;;4.27;2.00;;;;;;;;;;5014650;28;20687;-81
2024/02/19 02:57:40;;;;;;;3.37;1.70;;;;;;;;;;5005815;28;20224;-83
2024/02/19 03:00:08;;;;;;;4.13;1.80;;;;;;;;;;4995232;28;20217;-79
2024/02/19 03:02:34;;;;;;;3.03;1.70;;;;;;;;;;5013580;28;20224;-80
2024/02/19 03:05:02;;;;;;;4.37;1.83;;;;;;;;;;4992055;28;20789;-85
2024/02/19 03:07:28;;;;;;;1.77;1.60;;;;;;;;;;4969051;28;20331;-86
2024/02/19 03:09:58;;;;;;;3.73;1.90;;;;;;;;;;5000159;28;20247;-84
2024/02/19 03:12:23;;;;;;;4.23;2.00;;;;;;;;;;5001874;28;20323;-84
2024/02/19 03:14:49;;;;;;;2.73;1.70;;;;;;;;;;4999703;28;20904;-82
2024/02/19 03:17:14;;;;;;;2.33;1.73;;;;;;;;;;5014496;28;20251;-83
2024/02/19 03:19:43;;;;;;;2.37;1.20;;;;;;;;;;5016571;28;20248;-85
2024/02/19 03:22:11;;;;;;;2.50;1.40;;;;;;;;;;4999902;28;20247;-82
2024/02/19 03:24:37;;;;;;;3.77;1.60;;;;;;;;;;4983798;28;20286;-84
2024/02/19 03:27:04;;;;;;;3.67;1.30;;;;;;;;;;4984550;28;20229;-83
2024/02/19 03:29:32;;;;;;;3.50;1.50;;;;;;;;;;4967192;28;20312;-84
2024/02/19 03:31:59;;;;;;;2.47;1.50;;;;;;;;;;4984257;28;20364;-84
2024/02/19 03:34:25;;;;;;;3.63;1.20;;;;;;;;;;4981411;28;20226;-83
2024/02/19 03:36:50;;;;;;;5.50;1.53;;;;;;;;;;4984039;28;20209;-84
2024/02/19 03:39:16;;;;;;;4.13;1.53;;;;;;;;;;4983088;28;20225;-84
2024/02/19 03:41:44;;;;;;;4.00;1.60;;;;;;;;;;4997447;28;20242;-84
2024/02/19 03:44:09;;;;;;;3.80;1.80;;;;;;;;;;5014279;28;20308;-87
2024/02/19 03:46:35;;;;;;;5.57;1.70;;;;;;;;;;4964286;28;20232;-84
2024/02/19 03:49:01;;;;;;;3.03;1.70;;;;;;;;;;4982918;28;20236;-81
2024/02/19 03:51:27;;;;;;;3.70;2.10;;;;;;;;;;4982170;28;20228;-81
2024/02/19 03:53:53;;;;;;;3.67;2.17;;;;;;;;;;4999300;28;20240;-82
2024/02/19 03:56:24;;;;;;;5.57;2.93;;;;;;;;;;4998316;28;20221;-83
2024/02/19 04:02:36;;;;;;;4.73;1.83;;;;;;;;;;5014050;28;20255;-84
2024/02/19 04:05:02;;;;;;;3.20;2.00;;;;;;;;;;4983336;28;20986;-83
2024/02/19 04:07:31;;;;;;;3.90;1.70;;;;;;;;;;4990682;28;20213;-80
2024/02/19 04:09:56;;;;;;;3.33;2.10;;;;;;;;;;5007224;28;20221;-83
2024/02/19 04:12:24;;;;;;;3.43;1.73;;;;;;;;;;5001253;28;20244;-82
2024/02/19 04:14:52;;;;;;;2.43;1.40;;;;;;;;;;4999945;28;20217;-85
2024/02/19 04:17:17;;;;;;;2.13;1.00;;;;;;;;;;5004831;28;20213;-81
2024/02/19 04:19:43;;;;;;;2.67;0.80;;;;;;;;;;4998737;28;20799;-84
2024/02/19 04:22:08;;;;;;;4.33;1.00;;;;;;;;;;4996329;28;20701;-82
2024/02/19 04:24:38;;;;;;;4.40;1.10;;;;;;;;;;4999906;28;20221;-81
2024/02/19 04:27:05;;;;;;;3.70;1.00;;;;;;;;;;4981093;28;20783;-83
2024/02/19 04:29:33;;;;;;;1.80;0.80;;;;;;;;;;4999334;28;20229;-84
2024/02/19 04:32:01;;;;;;;3.73;0.77;;;;;;;;;;4995302;28;20232;-85
2024/02/19 04:34:29;;;;;;;4.73;1.10;;;;;;;;;;4981768;28;20240;-83
2024/02/19 04:36:57;;;;;;;1.80;0.80;;;;;;;;;;4984623;28;20213;-84
2024/02/19 04:39:23;;;;;;;2.03;0.80;;;;;;;;;;4999793;28;20640;-83
2024/02/19 04:41:48;;;;;;;1.10;0.60;;;;;;;;;;4981821;28;20678;-84
2024/02/19 04:44:14;;;;;;;1.53;0.73;;;;;;;;;;4995879;28;20212;-85
2024/02/19 04:46:39;;;;;;;1.00;0.50;;;;;;;;;;4996894;28;20240;-88
2024/02/19 04:49:05;;;;;;;0.50;0.40;;;;;;;;;;4979252;28;20282;-83
2024/02/19 04:51:30;;;;;;;0.93;0.50;;;;;;;;;;4997676;28;20213;-81
2024/02/19 04:54:01;;;;;;;1.17;0.67;;;;;;;;;;4996411;28;20227;-82
2024/02/19 04:56:27;;;;;;;2.07;0.60;;;;;;;;;;4993513;28;20237;-81
2024/02/19 04:58:55;;;;;;;1.80;0.60;;;;;;;;;;4999486;28;20618;-81
2024/02/19 05:01:24;;;;;;;0.57;0.50;;;;;;;;;;4999576;28;20330;-81
2024/02/19 05:03:49;;;;;;;1.27;0.67;;;;;;;;;;4999369;28;20225;-81
2024/02/19 05:06:17;;;;;;;1.27;0.70;;;;;;;;;;4981491;28;20238;-80
2024/02/19 05:08:45;;;;;;;1.03;0.80;;;;;;;;;;4981530;28;20239;-80
2024/02/19 05:11:14;;;;;;;1.30;0.67;;;;;;;;;;5015627;28;20228;-80
2024/02/19 05:13:40;;;;;;;2.50;0.80;;;;;;;;;;4984957;28;20221;-80
2024/02/19 05:16:08;;;;;;;1.87;0.97;;;;;;;;;;4982987;28;20410;-82
2024/02/19 05:18:35;;;;;;;0.80;0.73;;;;;;;;;;5004096;28;20287;-80
2024/02/19 05:21:03;;;;;;;2.43;1.00;;;;;;;;;;4982432;28;20226;-80
2024/02/19 05:23:29;;;;;;;2.23;1.20;;;;;;;;;;4999313;28;20299;-80
2024/02/19 05:25:57;;;;;;;2.07;1.27;;;;;;;;;;5011285;28;20256;-79
2024/02/19 05:28:23;;;;;;;1.00;0.90;;;;;;;;;;5011940;28;20293;-80
2024/02/19 05:30:48;;;;;;;2.63;1.00;;;;;;;;;;4997150;28;20221;-80
2024/02/19 05:33:18;;;;;;;2.37;0.90;;;;;;;;;;4978318;28;20741;-79
2024/02/19 05:35:46;;;;;;;4.17;1.00;;;;;;;;;;5012394;28;20289;-80
2024/02/19 05:38:12;;;;;;;3.13;1.20;;;;;;;;;;4981404;28;20232;-81
2024/02/19 05:40:40;;;;;;;1.10;0.93;;;;;;;;;;4986636;28;20811;-80
2024/02/19 05:43:06;;;;;;;1.63;1.00;;;;;;;;;;5016268;28;20220;-79
2024/02/19 05:45:32;;;;;;;1.60;1.20;;;;;;;;;;4982678;28;20783;-81
2024/02/19 05:47:57;;;;;;;1.93;1.50;;;;;;;;;;5002862;28;20633;-79
2024/02/19 05:50:23;;;;;;;1.23;1.10;;;;;;;;;;4999573;28;20232;-79
2024/02/19 05:52:48;;;;;;;1.47;1.20;;;;;;;;;;4983912;28;20217;-79
2024/02/19 05:55:17;;;;;;;1.63;1.17;;;;;;;;;;5003109;28;20228;-81
2024/02/19 05:57:42;;;;;;;2.23;1.30;;;;;;;;;;5031709;28;20224;-78
2024/02/19 06:00:11;;;;;;;2.73;1.43;;;;;;;;;;4998388;28;20227;-79
2024/02/19 06:02:36;;;;;;;3.07;1.90;;;;;;;;;;5011726;28;21035;-78
2024/02/19 06:05:03;;;;;;;3.23;1.60;;;;;;;;;;5010617;28;20225;-78
2024/02/19 06:07:31;;;;;;;1.93;1.40;;;;;;;;;;5010915;28;20220;-78
2024/02/19 06:09:56;;;;;;;3.53;1.93;;;;;;;;;;5005814;28;20259;-80
2024/02/19 06:12:25;;;;;;;2.87;1.93;;;;;;;;;;5001105;28;20217;-79
2024/02/19 06:14:53;;;;;;;2.90;2.00;;;;;;;;;;4987765;28;20221;-80
2024/02/19 06:17:18;;;;;;;2.50;2.10;;;;;;;;;;4992108;28;20231;-79
2024/02/19 06:19:44;;;;;;;4.63;2.30;;;;;;;;;;5021799;28;20236;-82
2024/02/19 06:22:10;;;;;;;3.97;2.40;;;;;;;;;;5002838;28;20280;-80
2024/02/19 06:24:35;;;;;;;3.73;2.40;;;;;;;;;;5002425;28;20244;-80
2024/02/19 06:27:01;;;;;;;5.37;2.70;;;;;;;;;;4987953;28;20221;-79
2024/02/19 06:29:27;;;;;;;4.23;2.77;;;;;;;;;;5000580;28;20234;-80
2024/02/19 06:31:54;;;;;;;4.40;3.00;;;;;;;;;;4986903;28;20219;-79
2024/02/19 06:34:21;;;;;;;4.73;2.70;;;;;;;;;;4999214;28;20943;-78
2024/02/19 06:36:46;;;;;;;5.10;2.80;;;;;;;;;;4982210;28;20225;-80
2024/02/19 06:39:15;;;;;;;4.37;3.27;;;;;;;;;;4997059;28;20248;-81
2024/02/19 06:41:40;;;;;;;4.67;2.80;;;;;;;;;;5004054;28;20312;-79
2024/02/19 06:44:06;;;;;;;4.73;2.97;;;;;;;;;;5002591;28;20212;-81
2024/02/19 06:46:31;;;;;;;4.60;3.10;;;;;;;;;;4997745;28;20240;-82
2024/02/19 06:48:59;;;;;;;4.63;2.97;;;;;;;;;;5002440;28;20284;-82
2024/02/19 06:51:25;;;;;;;5.90;3.10;;;;;;;;;;4984897;28;20224;-81
2024/02/19 06:53:55;;;;;;;6.77;4.13;;;;;;;;;;4987679;28;20764;-81
2024/02/19 06:56:21;;;;;;;11.97;8.47;;;;;;;;;;5014069;28;20318;-80
2024/02/19 06:58:48;;;;;;;7.90;5.67;;;;;;;;;;5003557;28;20231;-80
2024/02/19 07:01:14;;;;;;;22.13;15.87;;;;;;;;;;5004906;28;20228;-82
2024/02/19 07:03:42;;;;;;;24.03;18.77;;;;;;;;;;4988909;28;20243;-80
2024/02/19 07:06:07;;;;;;;7.10;4.40;;;;;;;;;;4988483;28;20229;-80
2024/02/19 07:08:35;;;;;;;6.57;5.37;;;;;;;;;;5004493;28;20371;-81
2024/02/19 07:11:01;;;;;;;9.17;8.27;;;;;;;;;;5003585;28;20285;-81
2024/02/19 07:13:26;;;;;;;2.70;2.50;;;;;;;;;;5003079;28;20226;-81
2024/02/19 07:15:52;;;;;;;9.10;8.20;;;;;;;;;;4987653;28;20254;-80
2024/02/19 07:18:17;;;;;;;6.77;6.17;;;;;;;;;;5014142;28;20232;-81
2024/02/19 07:20:43;;;;;;;5.23;4.10;;;;;;;;;;5001927;28;20232;-82
2024/02/19 07:23:11;;;;;;;3.90;3.47;;;;;;;;;;4998935;28;20239;-79
2024/02/19 07:25:36;;;;;;;3.70;3.40;;;;;;;;;;4974510;28;20232;-80
2024/02/19 07:28:02;;;;;;;4.43;2.57;;;;;;;;;;5023514;28;20351;-80
2024/02/19 07:30:28;;;;;;;3.70;3.30;;;;;;;;;;4990802;28;20231;-80
2024/02/19 07:32:53;;;;;;;3.53;2.97;;;;;;;;;;5025472;28;20309;-81
2024/02/19 07:35:19;;;;;;;4.07;3.30;;;;;;;;;;4993801;28;20216;-80
2024/02/19 07:37:44;;;;;;;3.20;2.90;;;;;;;;;;5000204;28;20216;-79
2024/02/19 07:40:10;;;;;;;5.97;2.70;;;;;;;;;;5007111;28;20702;-81
2024/02/19 07:42:36;;;;;;;4.63;3.50;;;;;;;;;;5020036;28;20236;-80
2024/02/19 07:45:05;;;;;;;5.83;3.33;;;;;;;;;;4989785;28;20237;-81
2024/02/19 07:47:30;;;;;;;6.80;3.10;;;;;;;;;;5004365;28;20220;-80
2024/02/19 07:49:56;;;;;;;5.00;3.80;;;;;;;;;;4986264;28;20232;-80
2024/02/19 07:52:22;;;;;;;6.37;3.73;;;;;;;;;;5020571;28;20217;-81
2024/02/19 07:54:50;;;;;;;4.10;2.90;;;;;;;;;;5021871;28;20217;-79
2024/02/19 07:57:16;;;;;;;3.37;2.70;;;;;;;;;;5022202;28;20240;-81
2024/02/19 07:59:42;;;;;;;4.93;2.40;;;;;;;;;;5004070;28;20276;-80
2024/02/19 08:02:11;;;;;;;4.90;2.30;;;;;;;;;;4997871;28;20311;-79
2024/02/19 08:04:37;;;;;;;3.90;2.40;;;;;;;;;;5017788;28;20235;-79
2024/02/19 08:07:02;;;;;;;2.37;2.10;;;;;;;;;;5021809;28;20311;-80
2024/02/19 08:09:30;;;;;;;3.50;2.00;;;;;;;;;;4991181;28;20252;-80
2024/02/19 08:11:58;;;;;;;4.50;1.97;;;;;;;;;;4990080;28;20289;-81
2024/02/19 08:14:26;;;;;;;4.23;1.80;;;;;;;;;;4977009;28;20226;-80
2024/02/19 08:16:52;;;;;;;1.80;1.60;;;;;;;;;;4983739;28;20252;-79
2024/02/19 08:19:19;;;;;;;1.90;1.17;;;;;;;;;;4997018;28;20310;-80
2024/02/19 08:21:47;;;;;;;2.80;1.30;;;;;;;;;;5016856;28;20315;-81
2024/02/19 08:24:15;;;;;;;1.83;1.50;;;;;;;;;;5031384;28;20220;-79
2024/02/19 08:26:41;;;;;;;2.00;1.80;;;;;;;;;;4996596;28;20228;-81
2024/02/19 08:29:06;;;;;;;1.90;1.60;;;;;;;;;;4998549;28;20240;-82
2024/02/19 08:31:36;;;;;;;3.43;1.80;;;;;;;;;;5005369;28;20705;-81
2024/02/19 08:34:04;;;;;;;3.63;1.70;;;;;;;;;;4984465;28;20217;-80
2024/02/19 08:36:32;;;;;;;3.93;3.20;;;;;;;;;;5012729;28;20240;-81
2024/02/19 08:38:58;;;;;;;3.30;2.20;;;;;;;;;;4999522;28;20225;-82
2024/02/19 08:41:23;;;;;;;4.70;2.10;;;;;;;;;;5025190;28;20220;-81
2024/02/19 08:43:49;;;;;;;2.70;1.97;;;;;;;;;;5008948;28;20600;-80
2024/02/19 08:46:15;;;;;;;3.43;2.20;;;;;;;;;;5003475;28;20240;-82
2024/02/19 08:48:41;;;;;;;3.63;2.77;;;;;;;;;;4982982;28;20225;-81
2024/02/19 08:51:06;;;;;;;5.40;2.53;;;;;;;;;;4987138;28;20228;-80
2024/02/19 08:53:33;;;;;;;5.37;2.90;;;;;;;;;;5003260;28;20693;-82
2024/02/19 08:56:01;;;;;;;6.40;3.03;;;;;;;;;;4990181;28;20292;-80
2024/02/19 08:58:28;;;;;;;6.67;3.00;;;;;;;;;;4982714;28;20229;-80
2024/02/19 09:00:54;;;;;;;7.23;3.37;;;;;;;;;;4999552;28;20272;-80
2024/02/19 09:03:19;;;;;;;7.30;3.30;;;;;;;;;;4983900;28;20229;-80
2024/02/19 09:05:47;;;;;;;7.20;3.40;;;;;;;;;;4985957;28;20232;-81
2024/02/19 09:08:13;;;;;;;6.43;3.77;;;;;;;;;;5015683;28;20299;-81
2024/02/19 09:10:38;;;;;;;5.27;3.30;;;;;;;;;;4981723;28;20542;-81
2024/02/19 09:13:06;;;;;;;6.00;3.40;;;;;;;;;;4982061;28;20244;-81
2024/02/19 09:15:32;;;;;;;6.73;3.80;;;;;;;;;;5019564;28;20328;-80
2024/02/19 09:17:58;;;;;;;8.20;4.80;;;;;;;;;;4997167;28;20263;-80
2024/02/19 09:20:24;;;;;;;7.20;4.57;;;;;;;;;;5012565;28;20229;-80
2024/02/19 09:22:49;;;;;;;10.37;5.43;;;;;;;;;;4998123;28;20267;-80
2024/02/19 09:25:17;;;;;;;5.80;4.90;;;;;;;;;;4983913;28;20221;-79
2024/02/19 09:27:45;;;;;;;8.70;5.07;;;;;;;;;;4996409;28;20287;-81
2024/02/19 09:30:12;;;;;;;8.33;5.13;;;;;;;;;;4981517;28;20230;-81
2024/02/19 09:32:40;;;;;;;6.50;5.27;;;;;;;;;;5000424;28;20239;-80
2024/02/19 09:35:05;;;;;;;6.70;5.73;;;;;;;;;;5000633;28;20260;-82
2024/02/19 09:37:31;;;;;;;7.10;6.40;;;;;;;;;;4999162;28;20229;-79
2024/02/19 09:39:59;;;;;;;9.13;6.63;;;;;;;;;;5014031;28;20706;-79
2024/02/19 09:42:28;;;;;;;8.10;6.70;;;;;;;;;;4995701;28;20252;-79
2024/02/19 09:44:57;;;;;;;7.80;6.33;;;;;;;;;;5012235;28;20221;-78
2024/02/19 09:47:22;;;;;;;8.70;6.80;;;;;;;;;;4999222;28;20286;-80
2024/02/19 09:49:48;;;;;;;12.20;10.13;;;;;;;;;;4966249;28;20761;-78
2024/02/19 09:52:16;;;;;;;8.00;7.30;;;;;;;;;;4995156;28;20240;-80
2024/02/19 09:54:42;;;;;;;10.73;7.43;;;;;;;;;;4979522;28;20221;-81
2024/02/19 09:57:10;;;;;;;10.00;7.10;;;;;;;;;;4982120;28;20224;-81
2024/02/19 09:59:40;;;;;;;7.53;6.63;;;;;;;;;;4993839;28;20491;-80
2024/02/19 10:02:07;;;;;;;9.37;7.23;;;;;;;;;;4997656;28;20233;-80
2024/02/19 10:04:35;;;;;;;7.00;6.27;;;;;;;;;;4980627;28;20225;-81
2024/02/19 10:07:04;;;;;;;7.13;6.50;;;;;;;;;;4997535;28;20242;-80
2024/02/19 10:09:30;;;;;;;6.70;6.00;;;;;;;;;;4996553;28;20224;-80
2024/02/19 10:12:02;;;;;;;7.17;6.03;;;;;;;;;;4993272;28;20371;-82
2024/02/19 10:14:29;;;;;;;7.67;5.60;;;;;;;;;;5013063;28;20295;-81
2024/02/19 10:16:55;;;;;;;8.37;6.00;;;;;;;;;;4998402;28;20220;-79
2024/02/19 10:19:20;;;;;;;8.80;5.70;;;;;;;;;;5011107;28;20230;-80
2024/02/19 10:21:50;;;;;;;7.37;5.33;;;;;;;;;;4995468;28;20236;-80
2024/02/19 10:24:16;;;;;;;6.80;5.17;;;;;;;;;;4996298;28;20295;-80
2024/02/19 10:26:43;;;;;;;7.97;5.67;;;;;;;;;;4987489;28;20259;-80
2024/02/19 10:29:08;;;;;;;7.67;5.37;;;;;;;;;;5013537;28;20232;-81
2024/02/19 10:31:36;;;;;;;6.53;5.23;;;;;;;;;;5012606;28;20209;-79
2024/02/19 10:34:02;;;;;;;6.20;5.10;;;;;;;;;;4998151;28;20221;-82
2024/02/19 10:36:27;;;;;;;9.00;5.07;;;;;;;;;;4981410;28;20227;-80
2024/02/19 10:38:53;;;;;;;7.17;4.83;;;;;;;;;;4994937;28;20602;-82
2024/02/19 10:41:20;;;;;;;7.87;4.43;;;;;;;;;;4993136;28;20225;-80
2024/02/19 10:43:49;;;;;;;7.47;4.10;;;;;;;;;;4995717;28;20225;-80
2024/02/19 10:46:19;;;;;;;9.57;4.00;;;;;;;;;;4996266;28;20318;-81
2024/02/19 10:48:49;;;;;;;7.73;3.50;;;;;;;;;;5009223;28;20233;-80
2024/02/19 10:51:17;;;;;;;8.20;2.97;;;;;;;;;;4977704;28;20292;-80
2024/02/19 10:53:45;;;;;;;5.10;2.80;;;;;;;;;;4980039;28;20209;-79
2024/02/19 10:56:15;;;;;;;7.17;2.40;;;;;;;;;;5009036;28;20212;-79
2024/02/19 10:58:51;;;;;;;5.40;1.87;;;;;;;;;;5007027;28;20248;-78
2024/02/19 11:01:17;;;;;;;3.73;1.73;;;;;;;;;;4976533;28;20213;-79
2024/02/19 11:03:43;;;;;;;4.53;1.87;;;;;;;;;;4996151;28;20232;-82
2024/02/19 11:06:11;;;;;;;7.73;2.27;;;;;;;;;;5025188;28;20228;-78
2024/02/19 11:08:47;;;;;;;6.23;2.30;;;;;;;;;;5009409;28;20245;-80
2024/02/19 11:11:12;;;;;;;7.63;2.60;;;;;;;;;;5022793;28;20217;-80
2024/02/19 11:13:38;;;;;;;5.07;2.37;;;;;;;;;;5010483;28;20594;-78
2024/02/19 11:16:25;;;;;;;6.93;2.97;;;;;;;;;;5009937;28;20231;-79
2024/02/19 11:18:51;;;;;;;7.73;3.67;;;;;;;;;;5010189;28;20247;-78
2024/02/19 11:21:21;;;;;;;8.20;3.80;;;;;;;;;;4994835;28;20212;-79
2024/02/19 11:23:46;;;;;;;6.70;3.87;;;;;;;;;;5028361;28;20240;-80
2024/02/19 11:26:15;;;;;;;7.17;3.97;;;;;;;;;;4995630;28;20221;-78
2024/02/19 11:28:40;;;;;;;7.53;4.03;;;;;;;;;;4995054;28;20344;-81
2024/02/19 11:31:06;;;;;;;9.27;4.07;;;;;;;;;;4995739;28;20229;-79
2024/02/19 11:33:33;;;;;;;6.73;3.80;;;;;;;;;;4992597;28;20239;-79
2024/02/19 11:36:01;;;;;;;7.90;3.67;;;;;;;;;;4997125;28;20217;-80
2024/02/19 11:38:31;;;;;;;6.93;3.10;;;;;;;;;;5010702;28;20729;-81
2024/02/19 11:41:01;;;;;;;8.13;2.90;;;;;;;;;;4996233;28;20221;-78
2024/02/19 11:43:27;;;;;;;9.83;3.17;;;;;;;;;;4979466;28;20235;-81
2024/02/19 11:45:55;;;;;;;7.17;3.10;;;;;;;;;;4977695;28;20241;-78
2024/02/19 11:48:21;;;;;;;5.50;2.90;;;;;;;;;;5010856;28;20244;-80
2024/02/19 11:50:46;;;;;;;11.57;3.93;;;;;;;;;;4996049;28;20367;-79
2024/02/19 11:53:12;;;;;;;16.23;7.10;;;;;;;;;;4978819;28;20220;-79
2024/02/19 11:55:40;;;;;;;11.43;6.40;;;;;;;;;;5011791;28;20232;-79
2024/02/19 11:58:08;;;;;;;13.20;6.13;;;;;;;;;;4996257;28;20225;-79
2024/02/19 12:00:33;;;;;;;8.20;3.50;;;;;;;;;;4979152;28;20772;-80
2024/02/19 12:03:04;;;;;;;9.47;3.97;;;;;;;;;;4991536;28;20247;-80
2024/02/19 12:05:30;;;;;;;8.87;3.00;;;;;;;;;;4992995;28;20255;-79
2024/02/19 12:07:55;;;;;;;8.93;3.00;;;;;;;;;;4977764;28;20714;-78
2024/02/19 12:10:21;;;;;;;6.97;2.60;;;;;;;;;;4978190;28;20230;-79
2024/02/19 12:12:46;;;;;;;6.17;2.03;;;;;;;;;;4977068;28;20231;-79
2024/02/19 12:15:13;;;;;;;5.50;2.40;;;;;;;;;;5009631;28;20224;-79
2024/02/19 12:17:44;;;;;;;7.20;2.10;;;;;;;;;;5010972;28;20223;-80
2024/02/19 12:20:11;;;;;;;4.70;2.13;;;;;;;;;;5008947;28;20225;-80
2024/02/19 12:22:38;;;;;;;7.20;2.40;;;;;;;;;;5026884;28;20217;-80
2024/02/19 12:25:07;;;;;;;6.17;2.23;;;;;;;;;;5009989;28;20217;-79
2024/02/19 12:27:35;;;;;;;5.97;2.60;;;;;;;;;;5010572;28;20227;-79
2024/02/19 12:30:01;;;;;;;5.83;2.20;;;;;;;;;;4994598;28;20685;-78
2024/02/19 12:32:26;;;;;;;7.23;2.27;;;;;;;;;;4994644;28;20220;-78
2024/02/19 12:34:55;;;;;;;5.73;2.60;;;;;;;;;;4995337;28;20602;-79
2024/02/19 12:37:23;;;;;;;6.70;2.50;;;;;;;;;;5012366;28;20223;-79
2024/02/19 12:39:49;;;;;;;6.37;3.10;;;;;;;;;;5010561;28;20220;-81
2024/02/19 12:42:17;;;;;;;6.93;2.60;;;;;;;;;;4998501;28;20227;-79
2024/02/19 12:44:42;;;;;;;5.53;2.90;;;;;;;;;;5013672;28;20578;-78
2024/02/19 12:47:08;;;;;;;8.67;3.43;;;;;;;;;;4980047;28;21042;-80
2024/02/19 12:49:34;;;;;;;7.27;3.43;;;;;;;;;;4979737;28;20232;-79
2024/02/19 12:52:00;;;;;;;6.73;3.10;;;;;;;;;;4997074;28;20229;-78
2024/02/19 12:54:26;;;;;;;6.37;3.20;;;;;;;;;;4963084;28;20235;-78
2024/02/19 12:56:51;;;;;;;8.03;3.43;;;;;;;;;;4996785;28;20220;-81
2024/02/19 12:59:17;;;;;;;8.27;3.50;;;;;;;;;;4995298;28;20231;-79
2024/02/19 13:01:50;;;;;;;9.23;3.73;;;;;;;;;;5012435;28;20224;-79
2024/02/19 13:04:19;;;;;;;9.97;4.10;;;;;;;;;;5009006;28;20319;-78
2024/02/19 13:06:45;;;;;;;6.63;3.47;;;;;;;;;;4977879;28;20232;-78
2024/02/19 13:09:11;;;;;;;5.40;3.10;;;;;;;;;;4976765;28;20224;-78
2024/02/19 13:11:39;;;;;;;11.40;6.63;;;;;;;;;;5036038;28;20228;-79
2024/02/19 13:14:05;;;;;;;6.33;3.40;;;;;;;;;;4993414;28;20633;-78
2024/02/19 13:16:35;;;;;;;6.67;3.80;;;;;;;;;;5013500;28;20228;-78
2024/02/19 13:19:01;;;;;;;8.17;4.10;;;;;;;;;;4991244;28;20520;-79
2024/02/19 13:21:28;;;;;;;9.30;4.00;;;;;;;;;;5010049;28;20726;-77
2024/02/19 13:23:59;;;;;;;8.47;4.03;;;;;;;;;;5007132;28;20240;-78
2024/02/19 13:26:24;;;;;;;7.87;4.83;;;;;;;;;;5006725;28;20240;-78
2024/02/19 13:28:50;;;;;;;11.17;5.27;;;;;;;;;;4992250;28;20224;-78
2024/02/19 13:31:17;;;;;;;9.30;5.20;;;;;;;;;;4992545;28;20233;-78
2024/02/19 13:33:43;;;;;;;8.90;5.23;;;;;;;;;;4993223;28;20220;-79
2024/02/19 13:36:08;;;;;;;12.27;6.37;;;;;;;;;;4989476;28;20216;-78
2024/02/19 13:38:40;;;;;;;14.60;6.40;;;;;;;;;;5009769;28;20259;-79
2024/02/19 13:41:06;;;;;;;16.03;6.50;;;;;;;;;;4992245;28;20228;-79
2024/02/19 13:43:31;;;;;;;12.93;6.83;;;;;;;;;;4978408;28;20250;-79
2024/02/19 13:46:01;;;;;;;12.60;6.70;;;;;;;;;;5011184;28;20280;-78
2024/02/19 13:48:32;;;;;;;13.30;6.83;;;;;;;;;;4993987;28;20255;-78
2024/02/19 13:50:58;;;;;;;13.60;6.40;;;;;;;;;;4992037;28;20224;-77
2024/02/19 13:53:25;;;;;;;10.27;5.33;;;;;;;;;;4992081;28;20224;-80
2024/02/19 13:55:54;;;;;;;10.10;5.07;;;;;;;;;;4992720;28;20237;-78
2024/02/19 13:58:22;;;;;;;11.17;4.30;;;;;;;;;;5006408;28;20224;-78
2024/02/19 14:00:48;;;;;;;8.63;3.80;;;;;;;;;;5007206;28;20279;-77
2024/02/19 14:03:13;;;;;;;6.33;3.50;;;;;;;;;;4973929;28;20225;-78
2024/02/19 14:05:44;;;;;;;6.00;3.37;;;;;;;;;;5024516;28;20224;-78
2024/02/19 14:08:09;;;;;;;7.13;3.93;;;;;;;;;;4990291;28;20745;-78
2024/02/19 14:10:35;;;;;;;9.27;4.23;;;;;;;;;;4990807;28;20278;-78
2024/02/19 14:13:01;;;;;;;6.33;3.70;;;;;;;;;;5008115;28;20228;-79
2024/02/19 14:15:27;;;;;;;7.53;3.97;;;;;;;;;;5007147;28;20219;-78
2024/02/19 14:17:53;;;;;;;6.63;4.00;;;;;;;;;;5005426;28;20308;-79
2024/02/19 14:20:20;;;;;;;7.37;4.00;;;;;;;;;;4992769;28;20580;-79
2024/02/19 14:22:48;;;;;;;8.37;3.77;;;;;;;;;;4994201;28;20224;-80
2024/02/19 14:25:15;;;;;;;7.63;3.30;;;;;;;;;;4976398;28;20217;-78
2024/02/19 14:27:46;;;;;;;6.23;3.57;;;;;;;;;;5009499;28;20693;-80
2024/02/19 14:30:15;;;;;;;6.23;3.50;;;;;;;;;;4997747;28;20239;-79
2024/02/19 14:32:42;;;;;;;7.43;3.47;;;;;;;;;;4994638;28;20244;-78
2024/02/19 14:35:08;;;;;;;5.73;4.03;;;;;;;;;;5007046;28;20224;-79
2024/02/19 14:37:40;;;;;;;8.03;5.00;;;;;;;;;;4992793;28;20576;-79
2024/02/19 14:40:11;;;;;;;9.23;4.30;;;;;;;;;;5006756;28;20854;-78
2024/02/19 14:42:36;;;;;;;7.37;4.93;;;;;;;;;;4997206;28;20233;-78